Airfield :
LOGIN :

Register | Disclaimer

   EN    FR    IT 

 










Legend :    VFR   Marginal VFR   IFR   Intensive IFR   Very Intensive IFR
Visi :
Ceiling :
>= 8 km
>= 3000ft
5 to 8 km
1000 to 3000 ft
1500m to 5 km
500 to 1000 ft
800 to 1500m
200 to 500 ft
< 800m
< 200 ft
Symbols :   Thunderstorms  Fog  Heavy snow  Heavy precipitations  Wind > 20 kt
SIGMETs :     Misc.  Thunderstorms  Icing  Turbulence  Mountain Waves  Volcanic Ashes







- Airport Elevation : 32 ft
- IATA code : LKZ


EGUL - RAF Lakenheath

CURRENT METAR :
  • 170856Z AUTO 22015KT 9999 CLR 13/10 A3007 RMK AO2 DZB35E44 SLP186 P0000 60000 T01310097 52012

EXPIRED METARs :
  • 170756Z AUTO 21013KT 9999 CLR 12/10 A3006 RMK AO2 SLP183 T01160100
  • 170656Z AUTO 21011KT 9999 CLR 11/10 A3004 RMK AO2 SLP176 T01050097

TAF AMD TAF EGUL
Valid from the 17 at 08:00 until the 18 at 10:00 UTC


170759Z 1708/1810 22012KT 9999 SKC QNH3000INS
TEMPO 1708/1716 23010G20KT
BECMG 1715/1716 26009KT 9999 BKN070 QNH3003INS
BECMG 1718/1719 VRB06KT 9999 BKN040 QNH2990INS
BECMG 1803/1804 07009KT 8000 -RA BKN020 OVC040 QNH2982INS TX15/1711Z TN08/1804Z
No reported NOTAMs for that airfield.
2 SIGMETs reported for the London FIR (EGTT) :
 
Severe mountain waves
EGTT SIGMET 05 VALID 170900/171100 EGRR
EGTT LONDON FIR SEV MTW FCST WI N5328 W00015 - N5229 W00431 - N5500 W00517 - N5500 W00100 - N5500 E00151 - N5328 W00015 FL040/200 STNR WKN=
Severe mountain waves
EGTT SIGMET 03 VALID 170500/170900 EGRR
EGTT LONDON FIR SEV MTW FCST WI N5220 W00530 - N5500 W00530 - N5500 E00115 - N5316 E00115 - N5124 W00259 - N5158 W00611 - N5220 W00530 FL030/200 MOV N 15KT WKN=



MET'MAP, your aeronautical weather chart ! - Copyright ORBIFLY December 2007 - Disclaimer

ORBIFLY MET'MAP TEAM :

Programming & Development : Alexandra Zaïnal
Concept & Development : Baudouin d'Aumeries
Co-Development & Prog : Marc-Olivier Méhu
Technical & hardware support : Manuel Goepfert

Contact : metmap@orbifly.com




SOURCES & CREDITS :

   NOAA